Time,TemperatureF,DewpointF,PressureIn,WindDirection,WindDirectionDegrees,WindSpeedMPH,WindSpeedGustMPH,Humidity,HourlyPrecipIn,Conditions,Clouds,dailyrainin,SoftwareType,DateUTC
2013-04-03 00:02:00,54.0,32.0,30.04,SSW,202,6.0,15.0,43,0.00,,,0.00,,2013-04-03 07:02:00,
2013-04-03 00:11:00,54.0,32.0,30.04,SSW,202,6.0,15.0,43,0.00,,,0.00,,2013-04-03 07:11:00,
2013-04-03 00:22:00,54.0,31.0,30.04,West,262,8.0,14.0,41,0.00,,,0.00,,2013-04-03 07:22:00,
2013-04-03 00:31:00,54.0,32.0,30.03,West,262,4.0,16.0,43,0.00,,,0.00,,2013-04-03 07:31:00,
2013-04-03 00:42:00,54.0,32.0,30.03,West,262,4.0,16.0,43,0.00,,,0.00,,2013-04-03 07:42:00,
2013-04-03 00:53:00,53.0,33.0,30.04,WSW,257,11.0,14.0,46,0.00,,,0.00,,2013-04-03 07:53:00,
2013-04-03 01:02:00,54.0,34.0,30.03,WNW,284,11.0,19.0,46,0.00,,,0.00,,2013-04-03 08:02:00,
2013-04-03 01:11:00,54.0,34.0,30.03,WNW,284,11.0,19.0,46,0.00,,,0.00,,2013-04-03 08:11:00,
2013-04-03 01:22:00,53.0,33.0,30.04,WSW,248,10.0,18.0,47,0.00,,,0.00,,2013-04-03 08:22:00,
2013-04-03 01:32:00,54.0,33.0,30.03,West,265,9.0,15.0,45,0.00,,,0.00,,2013-04-03 08:32:00,
2013-04-03 01:42:00,54.0,33.0,30.03,West,265,9.0,15.0,45,0.00,,,0.00,,2013-04-03 08:42:00,
2013-04-03 01:52:00,54.0,32.0,30.03,West,275,10.0,18.0,43,0.00,,,0.00,,2013-04-03 08:52:00,
2013-04-03 02:01:00,54.0,31.0,30.03,West,269,8.0,15.0,42,0.00,,,0.00,,2013-04-03 09:01:00,
2013-04-03 02:11:00,54.0,31.0,30.03,West,269,8.0,15.0,42,0.00,,,0.00,,2013-04-03 09:11:00,
2013-04-03 02:21:00,54.0,31.0,30.03,West,280,8.0,16.0,42,0.00,,,0.00,,2013-04-03 09:21:00,
2013-04-03 02:32:00,54.0,31.0,30.03,West,277,5.0,13.0,41,0.00,,,0.00,,2013-04-03 09:32:00,
2013-04-03 02:42:00,54.0,31.0,30.03,West,277,5.0,13.0,41,0.00,,,0.00,,2013-04-03 09:42:00,
2013-04-03 02:53:00,54.0,30.0,30.03,West,272,7.0,11.0,40,0.00,,,0.00,,2013-04-03 09:53:00,
2013-04-03 03:02:00,54.0,29.0,30.03,West,261,2.0,6.0,38,0.00,,,0.00,,2013-04-03 10:02:00,
2013-04-03 03:12:00,54.0,29.0,30.03,West,261,2.0,6.0,38,0.00,,,0.00,,2013-04-03 10:12:00,
2013-04-03 03:22:00,52.0,28.0,30.03,South,189,2.0,6.0,39,0.00,,,0.00,,2013-04-03 10:22:00,
2013-04-03 03:32:00,50.0,29.0,30.04,SE,138,4.0,6.0,44,0.00,,,0.00,,2013-04-03 10:32:00,
2013-04-03 03:42:00,50.0,29.0,30.04,SE,138,4.0,6.0,44,0.00,,,0.00,,2013-04-03 10:42:00,
2013-04-03 03:52:00,50.0,29.0,30.01,SE,138,5.0,6.0,44,0.00,,,0.00,,2013-04-03 10:52:00,
2013-04-03 04:02:00,50.0,28.0,30.01,SE,138,2.0,5.0,43,0.00,,,0.00,,2013-04-03 11:02:00,
2013-04-03 04:12:00,50.0,28.0,30.01,SE,138,2.0,5.0,43,0.00,,,0.00,,2013-04-03 11:12:00,
2013-04-03 04:22:00,49.0,29.0,30.04,SE,138,0.0,2.0,45,0.00,,,0.00,,2013-04-03 11:22:00,
2013-04-03 04:32:00,48.0,29.0,30.03,SE,138,0.0,2.0,48,0.00,,,0.00,,2013-04-03 11:32:00,
2013-04-03 04:41:00,48.0,29.0,30.03,SE,138,0.0,2.0,48,0.00,,,0.00,,2013-04-03 11:41:00,
2013-04-03 04:52:00,48.0,29.0,30.03,SE,138,0.0,5.0,47,0.00,,,0.00,,2013-04-03 11:52:00,
2013-04-03 05:01:00,47.0,28.0,30.04,SE,138,2.0,3.0,48,0.00,,,0.00,,2013-04-03 12:01:00,
2013-04-03 05:12:00,47.0,28.0,30.04,SE,138,2.0,3.0,48,0.00,,,0.00,,2013-04-03 12:12:00,
2013-04-03 05:22:00,48.0,29.0,30.04,SE,138,0.0,3.0,48,0.00,,,0.00,,2013-04-03 12:22:00,
2013-04-03 05:32:00,47.0,28.0,30.03,SE,138,0.0,0.0,48,0.00,,,0.00,,2013-04-03 12:32:00,
2013-04-03 05:41:00,47.0,28.0,30.03,SE,138,0.0,0.0,48,0.00,,,0.00,,2013-04-03 12:41:00,
2013-04-03 05:52:00,47.0,28.0,30.03,SE,138,0.0,2.0,48,0.00,,,0.00,,2013-04-03 12:52:00,
2013-04-03 06:02:00,47.0,29.0,30.03,SE,138,0.0,0.0,50,0.00,,,0.00,,2013-04-03 13:02:00,
2013-04-03 06:12:00,47.0,29.0,30.03,SE,138,0.0,0.0,50,0.00,,,0.00,,2013-04-03 13:12:00,
2013-04-03 06:22:00,46.0,28.0,30.04,SE,138,0.0,0.0,50,0.00,,,0.00,,2013-04-03 13:22:00,
2013-04-03 06:32:00,46.0,29.0,30.06,SE,138,0.0,0.0,51,0.00,,,0.00,,2013-04-03 13:32:00,
2013-04-03 06:41:00,46.0,29.0,30.06,SE,138,0.0,0.0,51,0.00,,,0.00,,2013-04-03 13:41:00,
2013-04-03 06:52:00,45.0,29.0,30.06,SE,138,0.0,1.0,53,0.00,,,0.00,,2013-04-03 13:52:00,
2013-04-03 07:01:00,44.0,29.0,30.05,SE,138,0.0,0.0,56,0.00,,,0.00,,2013-04-03 14:01:00,
2013-04-03 07:12:00,44.0,29.0,30.05,SE,138,0.0,0.0,56,0.00,,,0.00,,2013-04-03 14:12:00,
2013-04-03 07:21:00,44.0,29.0,30.05,SE,138,0.0,0.0,56,0.00,,,0.00,,2013-04-03 14:21:00,
2013-04-03 07:32:00,45.0,32.0,30.05,SE,138,0.0,0.0,59,0.00,,,0.00,,2013-04-03 14:32:00,
2013-04-03 07:42:00,45.0,32.0,30.05,SE,138,0.0,0.0,59,0.00,,,0.00,,2013-04-03 14:42:00,
2013-04-03 07:52:00,46.0,32.0,30.06,SE,138,0.0,0.0,57,0.00,,,0.00,,2013-04-03 14:52:00,
2013-04-03 08:01:00,48.0,34.0,30.08,SE,138,0.0,0.0,58,0.00,,,0.00,,2013-04-03 15:01:00,
2013-04-03 08:12:00,48.0,34.0,30.08,SE,138,0.0,0.0,58,0.00,,,0.00,,2013-04-03 15:12:00,
2013-04-03 08:22:00,51.0,34.0,30.07,SE,138,0.0,0.0,53,0.00,,,0.00,,2013-04-03 15:22:00,
2013-04-03 08:32:00,55.0,33.0,30.08,SW,236,0.0,1.0,43,0.00,,,0.00,,2013-04-03 15:32:00,
2013-04-03 08:42:00,55.0,33.0,30.08,SW,236,0.0,1.0,43,0.00,,,0.00,,2013-04-03 15:42:00,
2013-04-03 08:53:00,57.0,35.0,30.08,SW,236,0.0,0.0,44,0.00,,,0.00,,2013-04-03 15:53:00,
2013-04-03 09:02:00,60.0,32.0,30.07,SW,236,0.0,0.0,35,0.00,,,0.00,,2013-04-03 16:02:00,
2013-04-03 09:12:00,60.0,32.0,30.07,SW,236,0.0,0.0,35,0.00,,,0.00,,2013-04-03 16:12:00,
2013-04-03 09:23:00,63.0,29.0,30.09,SW,236,0.0,2.0,28,0.00,,,0.00,,2013-04-03 16:23:00,
2013-04-03 09:32:00,65.0,31.0,30.09,WSW,238,2.0,4.0,28,0.00,,,0.00,,2013-04-03 16:32:00,
2013-04-03 09:42:00,65.0,31.0,30.09,WSW,238,2.0,4.0,28,0.00,,,0.00,,2013-04-03 16:42:00,
2013-04-03 09:52:00,66.0,31.0,30.09,North,10,2.0,5.0,27,0.00,,,0.00,,2013-04-03 16:52:00,
2013-04-03 10:02:00,66.0,32.0,30.09,NNE,14,4.0,7.0,28,0.00,,,0.00,,2013-04-03 17:02:00,
2013-04-03 10:12:00,66.0,32.0,30.09,NNE,14,4.0,7.0,28,0.00,,,0.00,,2013-04-03 17:12:00,
2013-04-03 10:22:00,68.0,33.0,30.08,NNE,28,5.0,10.0,27,0.00,,,0.00,,2013-04-03 17:22:00,
2013-04-03 10:32:00,68.0,34.0,30.08,NNE,32,2.0,9.0,28,0.00,,,0.00,,2013-04-03 17:32:00,
2013-04-03 10:45:00,68.0,34.0,30.08,NNE,32,2.0,9.0,28,0.00,,,0.00,,2013-04-03 17:45:00,
2013-04-03 10:53:00,70.0,34.0,30.10,NNE,15,3.0,11.0,26,0.00,,,0.00,,2013-04-03 17:53:00,
2013-04-03 11:02:00,70.0,32.0,30.10,NNE,28,2.0,11.0,24,0.00,,,0.00,,2013-04-03 18:02:00,
2013-04-03 11:12:00,70.0,32.0,30.10,NNE,28,2.0,11.0,24,0.00,,,0.00,,2013-04-03 18:12:00,
2013-04-03 11:22:00,71.0,32.0,30.10,NNE,18,2.0,9.0,24,0.00,,,0.00,,2013-04-03 18:22:00,
2013-04-03 11:32:00,72.0,32.0,30.10,NE,35,3.0,13.0,23,0.00,,,0.00,,2013-04-03 18:32:00,
2013-04-03 11:42:00,72.0,32.0,30.10,NE,35,3.0,13.0,23,0.00,,,0.00,,2013-04-03 18:42:00,
2013-04-03 11:52:00,72.0,30.0,30.10,NE,45,10.0,13.0,21,0.00,,,0.00,,2013-04-03 18:52:00,
2013-04-03 12:01:00,72.0,30.0,30.09,North,351,6.0,13.0,21,0.00,,,0.00,,2013-04-03 19:01:00,
2013-04-03 12:11:00,72.0,30.0,30.09,North,351,6.0,13.0,21,0.00,,,0.00,,2013-04-03 19:11:00,
2013-04-03 12:21:00,72.0,30.0,30.08,NNE,29,7.0,12.0,21,0.00,,,0.00,,2013-04-03 19:21:00,
2013-04-03 12:32:00,73.0,30.0,30.08,ENE,67,7.0,14.0,20,0.00,,,0.00,,2013-04-03 19:32:00,
2013-04-03 12:42:00,73.0,30.0,30.08,ENE,67,7.0,14.0,20,0.00,,,0.00,,2013-04-03 19:42:00,
2013-04-03 12:52:00,74.0,32.0,30.08,NNE,17,5.0,16.0,21,0.00,,,0.00,,2013-04-03 19:52:00,
2013-04-03 13:02:00,73.0,31.0,30.08,NE,39,7.0,16.0,21,0.00,,,0.00,,2013-04-03 20:02:00,
2013-04-03 13:12:00,73.0,31.0,30.08,NE,39,7.0,16.0,21,0.00,,,0.00,,2013-04-03 20:12:00,
2013-04-03 13:22:00,73.0,31.0,30.08,East,86,5.0,16.0,21,0.00,,,0.00,,2013-04-03 20:22:00,
2013-04-03 13:32:00,75.0,30.0,30.06,ENE,65,5.0,12.0,19,0.00,,,0.00,,2013-04-03 20:32:00,
2013-04-03 13:42:00,75.0,30.0,30.06,ENE,65,5.0,12.0,19,0.00,,,0.00,,2013-04-03 20:42:00,
2013-04-03 13:52:00,74.0,29.0,30.06,NE,54,5.0,14.0,19,0.00,,,0.00,,2013-04-03 20:52:00,
2013-04-03 14:01:00,74.0,29.0,30.06,ENE,78,5.0,10.0,19,0.00,,,0.00,,2013-04-03 21:01:00,
2013-04-03 14:12:00,74.0,29.0,30.06,ENE,78,5.0,10.0,19,0.00,,,0.00,,2013-04-03 21:12:00,
2013-04-03 14:22:00,76.0,31.0,30.05,East,82,5.0,14.0,19,0.00,,,0.00,,2013-04-03 21:22:00,
2013-04-03 14:32:00,77.0,29.0,30.05,ENE,75,7.0,10.0,17,0.00,,,0.00,,2013-04-03 21:32:00,
2013-04-03 14:42:00,77.0,29.0,30.05,ENE,75,7.0,10.0,17,0.00,,,0.00,,2013-04-03 21:42:00,
2013-04-03 14:52:00,76.0,32.0,30.05,SE,144,6.0,11.0,20,0.00,,,0.00,,2013-04-03 21:52:00,
2013-04-03 15:02:00,75.0,31.0,30.05,WSW,240,6.0,17.0,20,0.00,,,0.00,,2013-04-03 22:02:00,
2013-04-03 15:12:00,75.0,31.0,30.05,WSW,240,6.0,17.0,20,0.00,,,0.00,,2013-04-03 22:12:00,
2013-04-03 15:22:00,75.0,31.0,30.04,SW,225,11.0,15.0,20,0.00,,,0.00,,2013-04-03 22:22:00,
2013-04-03 15:32:00,75.0,35.0,30.05,West,261,10.0,15.0,23,0.00,,,0.00,,2013-04-03 22:32:00,
2013-04-03 15:42:00,75.0,35.0,30.05,West,261,10.0,15.0,23,0.00,,,0.00,,2013-04-03 22:42:00,
2013-04-03 15:52:00,75.0,32.0,30.05,SSW,213,9.0,16.0,21,0.00,,,0.00,,2013-04-03 22:52:00,
2013-04-03 16:01:00,74.0,33.0,30.03,SSE,161,8.0,15.0,22,0.00,,,0.00,,2013-04-03 23:01:00,
2013-04-03 16:11:00,74.0,33.0,30.03,SSE,161,8.0,15.0,22,0.00,,,0.00,,2013-04-03 23:11:00,
2013-04-03 16:21:00,73.0,32.0,30.02,SSE,163,6.0,18.0,22,0.00,,,0.00,,2013-04-03 23:21:00,
2013-04-03 16:32:00,74.0,33.0,30.02,SSE,166,13.0,19.0,22,0.00,,,0.00,,2013-04-03 23:32:00,
2013-04-03 16:42:00,74.0,33.0,30.02,SSE,166,13.0,19.0,22,0.00,,,0.00,,2013-04-03 23:42:00,
2013-04-03 16:54:00,74.0,30.0,30.02,South,191,9.0,19.0,20,0.00,,,0.00,,2013-04-03 23:54:00,
2013-04-03 17:02:00,73.0,31.0,30.03,SSW,192,10.0,20.0,21,0.00,,,0.00,,2013-04-04 00:02:00,
2013-04-03 17:12:00,73.0,31.0,30.03,SSW,192,10.0,20.0,21,0.00,,,0.00,,2013-04-04 00:12:00,
2013-04-03 17:22:00,72.0,29.0,30.02,SSW,194,13.0,18.0,20,0.00,,,0.00,,2013-04-04 00:22:00,
2013-04-03 17:32:00,72.0,29.0,30.03,SSW,194,13.0,20.0,20,0.00,,,0.00,,2013-04-04 00:32:00,
2013-04-03 17:42:00,72.0,29.0,30.03,SSW,194,13.0,20.0,20,0.00,,,0.00,,2013-04-04 00:42:00,
2013-04-03 17:52:00,71.0,29.0,30.03,SSW,206,13.0,21.0,21,0.00,,,0.00,,2013-04-04 00:52:00,
2013-04-03 18:02:00,71.0,28.0,30.01,SSE,153,11.0,20.0,20,0.00,,,0.00,,2013-04-04 01:02:00,
2013-04-03 18:11:00,71.0,28.0,30.01,SSE,153,11.0,20.0,20,0.00,,,0.00,,2013-04-04 01:11:00,
2013-04-03 18:22:00,71.0,28.0,30.01,SSE,163,11.0,19.0,20,0.00,,,0.00,,2013-04-04 01:22:00,
2013-04-03 18:31:00,69.0,27.0,30.02,SSW,198,8.0,15.0,21,0.00,,,0.00,,2013-04-04 01:31:00,
2013-04-03 18:42:00,69.0,27.0,30.02,SSW,198,8.0,15.0,21,0.00,,,0.00,,2013-04-04 01:42:00,
2013-04-03 18:52:00,68.0,27.0,30.03,SSW,197,10.0,18.0,21,0.00,,,0.00,,2013-04-04 01:52:00,
2013-04-03 19:01:00,68.0,27.0,30.03,South,171,9.0,19.0,21,0.00,,,0.00,,2013-04-04 02:01:00,
2013-04-03 19:11:00,68.0,27.0,30.03,South,171,9.0,19.0,21,0.00,,,0.00,,2013-04-04 02:11:00,
2013-04-03 19:22:00,67.0,27.0,30.03,South,188,9.0,16.0,22,0.00,,,0.00,,2013-04-04 02:22:00,
2013-04-03 19:31:00,66.0,28.0,30.01,South,183,10.0,17.0,24,0.00,,,0.00,,2013-04-04 02:31:00,
2013-04-03 19:42:00,66.0,28.0,30.01,South,183,10.0,17.0,24,0.00,,,0.00,,2013-04-04 02:42:00,
2013-04-03 19:52:00,66.0,28.0,30.01,South,183,10.0,17.0,24,0.00,,,0.00,,2013-04-04 02:52:00,
2013-04-03 20:01:00,65.0,34.0,30.03,SSE,150,10.0,15.0,32,0.00,,,0.00,,2013-04-04 03:01:00,
2013-04-03 20:11:00,65.0,34.0,30.03,SSE,150,10.0,15.0,32,0.00,,,0.00,,2013-04-04 03:11:00,
2013-04-03 20:22:00,64.0,40.0,30.01,SSE,161,11.0,16.0,42,0.00,,,0.00,,2013-04-04 03:22:00,
2013-04-03 20:33:00,63.0,42.0,30.02,SW,228,11.0,20.0,47,0.00,,,0.00,,2013-04-04 03:33:00,
2013-04-03 20:43:00,63.0,42.0,30.02,SW,228,11.0,20.0,47,0.00,,,0.00,,2013-04-04 03:43:00,
2013-04-03 20:53:00,62.0,42.0,30.04,SSW,205,8.0,18.0,48,0.00,,,0.00,,2013-04-04 03:53:00,
2013-04-03 21:02:00,62.0,42.0,30.04,SSW,213,8.0,16.0,48,0.00,,,0.00,,2013-04-04 04:02:00,
2013-04-03 21:12:00,62.0,42.0,30.04,SSW,213,8.0,16.0,48,0.00,,,0.00,,2013-04-04 04:12:00,
2013-04-03 21:22:00,62.0,43.0,30.05,South,189,8.0,14.0,50,0.00,,,0.00,,2013-04-04 04:22:00,
2013-04-03 21:32:00,61.0,43.0,30.03,SSE,165,7.0,15.0,51,0.00,,,0.00,,2013-04-04 04:32:00,
2013-04-03 21:42:00,61.0,43.0,30.03,SSE,165,7.0,15.0,51,0.00,,,0.00,,2013-04-04 04:42:00,
2013-04-03 21:52:00,61.0,42.0,30.03,South,178,5.0,12.0,49,0.00,,,0.00,,2013-04-04 04:52:00,
2013-04-03 22:02:00,61.0,41.0,30.03,South,186,7.0,14.0,48,0.00,,,0.00,,2013-04-04 05:02:00,
2013-04-03 22:12:00,61.0,41.0,30.03,South,186,7.0,14.0,48,0.00,,,0.00,,2013-04-04 05:12:00,
2013-04-03 22:22:00,61.0,42.0,30.03,South,182,6.0,13.0,49,0.00,,,0.00,,2013-04-04 05:22:00,
2013-04-03 22:32:00,60.0,40.0,30.06,South,171,5.0,13.0,47,0.00,,,0.00,,2013-04-04 05:32:00,
2013-04-03 22:42:00,60.0,40.0,30.06,South,171,5.0,13.0,47,0.00,,,0.00,,2013-04-04 05:42:00,
2013-04-03 22:52:00,61.0,40.0,30.05,South,186,7.0,15.0,46,0.00,,,0.00,,2013-04-04 05:52:00,
2013-04-03 23:02:00,61.0,40.0,30.05,South,178,6.0,16.0,46,0.00,,,0.00,,2013-04-04 06:02:00,
2013-04-03 23:12:00,61.0,40.0,30.05,South,178,6.0,16.0,46,0.00,,,0.00,,2013-04-04 06:12:00,
2013-04-03 23:21:00,61.0,38.0,30.05,South,177,6.0,15.0,43,0.00,,,0.00,,2013-04-04 06:21:00,
2013-04-03 23:32:00,60.0,41.0,30.05,South,173,8.0,18.0,49,0.00,,,0.00,,2013-04-04 06:32:00,
2013-04-03 23:42:00,60.0,41.0,30.05,South,173,8.0,18.0,49,0.00,,,0.00,,2013-04-04 06:42:00,
2013-04-03 23:52:00,60.0,42.0,30.05,South,173,9.0,15.0,51,0.00,,,0.00,,2013-04-04 06:52:00,